KMSO/MSO METAR and TAF weather

Enter ICAO airport designator
Station Type Date Time Source
KMSO METAR 2022/01/26 19:57 UTC NOAA

KMSO 261957Z 00000KT 1SM BR VV002 M07/M08 A3021 RMK AO2 T10721083


Station Type Date Time Source
KMSO Decoded METAR 2022/01/26 19:57 UTC NOAA

MISSOULA INTERNATIONAL AIRPORT , MT, United States (KMSO) 46-55N 114-06W 975M
Jan 26, 2022 - 02:57 PM EST / 2022.01.26 1957 UTC
Wind: Calm:0
Visibility: 1 mile(s):0
Sky conditions: obscured
Weather: mist
Temperature: 19.0 F (-7.2 C)
Dew Point: 17.1 F (-8.3 C)
Relative Humidity: 91%
Pressure (altimeter): 30.21 in. Hg (1023 hPa)
ob: KMSO 261957Z 00000KT 1SM BR VV002 M07/M08 A3021 RMK AO2 T10721083
cycle: 20

Station Type Date Time Source
KMSO TAF 2022/01/26 18:24 UTC NOAA

TAF KMSO 261721Z 2618/2718 VRB03KT 3/4SM BR VCFG OVC003
TEMPO 2618/2620 1/4SM FZFG VV003
FM262000 00000KT 1SM BR SCT003 BKN015 OVC050
FM262100 30003KT 4SM BR SCT015 OVC050
FM262300 31005KT 6SM BR BKN050
FM270500 35005KT 2SM BR VCFG SCT035
FM270700 00000KT 1/2SM FZFG OVC005

Example: see airport list